sensor_id;sensor_type;location;lat;lon;timestamp;temperature;humidity
24162;DHT22;12318;51.262;7.066;2023-02-15T00:01:44;5.10;99.90
24162;DHT22;12318;51.262;7.066;2023-02-15T00:04:13;5.00;99.90
24162;DHT22;12318;51.262;7.066;2023-02-15T00:06:39;5.10;99.90
24162;DHT22;12318;51.262;7.066;2023-02-15T00:09:05;5.00;99.90
24162;DHT22;12318;51.262;7.066;2023-02-15T00:11:31;4.90;99.90
24162;DHT22;12318;51.262;7.066;2023-02-15T00:14:13;4.80;99.90
24162;DHT22;12318;51.262;7.066;2023-02-15T00:16:41;4.90;99.90
24162;DHT22;12318;51.262;7.066;2023-02-15T00:19:08;4.90;99.90
24162;DHT22;12318;51.262;7.066;2023-02-15T00:21:35;4.80;99.90
24162;DHT22;12318;51.262;7.066;2023-02-15T00:24:03;4.80;99.90
24162;DHT22;12318;51.262;7.066;2023-02-15T00:26:30;4.80;99.90
24162;DHT22;12318;51.262;7.066;2023-02-15T00:28:56;4.70;99.90
24162;DHT22;12318;51.262;7.066;2023-02-15T00:31:24;4.70;99.90
24162;DHT22;12318;51.262;7.066;2023-02-15T00:33:53;4.60;99.90
24162;DHT22;12318;51.262;7.066;2023-02-15T00:36:20;4.60;99.90
24162;DHT22;12318;51.262;7.066;2023-02-15T00:38:46;4.50;99.90
24162;DHT22;12318;51.262;7.066;2023-02-15T00:41:11;4.60;99.90
24162;DHT22;12318;51.262;7.066;2023-02-15T00:43:37;4.60;99.90
24162;DHT22;12318;51.262;7.066;2023-02-15T00:46:06;4.60;99.90
24162;DHT22;12318;51.262;7.066;2023-02-15T00:48:32;4.60;99.90
24162;DHT22;12318;51.262;7.066;2023-02-15T00:50:59;4.50;99.90
24162;DHT22;12318;51.262;7.066;2023-02-15T00:53:26;4.40;99.90
24162;DHT22;12318;51.262;7.066;2023-02-15T00:55:53;4.50;99.90
24162;DHT22;12318;51.262;7.066;2023-02-15T00:58:19;4.60;99.90
24162;DHT22;12318;51.262;7.066;2023-02-15T01:00:46;4.60;99.90
24162;DHT22;12318;51.262;7.066;2023-02-15T01:03:13;4.70;99.90
24162;DHT22;12318;51.262;7.066;2023-02-15T01:05:39;4.60;99.90
24162;DHT22;12318;51.262;7.066;2023-02-15T01:08:06;4.60;99.90
24162;DHT22;12318;51.262;7.066;2023-02-15T01:10:31;4.60;99.90
24162;DHT22;12318;51.262;7.066;2023-02-15T01:12:58;4.50;99.90
24162;DHT22;12318;51.262;7.066;2023-02-15T01:15:24;4.50;99.90
24162;DHT22;12318;51.262;7.066;2023-02-15T01:17:51;4.40;99.90
24162;DHT22;12318;51.262;7.066;2023-02-15T01:20:25;4.40;99.90
24162;DHT22;12318;51.262;7.066;2023-02-15T01:22:52;4.30;99.90
24162;DHT22;12318;51.262;7.066;2023-02-15T01:25:21;4.30;99.90
24162;DHT22;12318;51.262;7.066;2023-02-15T01:27:47;4.40;99.90
24162;DHT22;12318;51.262;7.066;2023-02-15T01:30:14;4.40;99.90
24162;DHT22;12318;51.262;7.066;2023-02-15T01:32:41;4.30;99.90
24162;DHT22;12318;51.262;7.066;2023-02-15T01:35:07;4.30;99.90
24162;DHT22;12318;51.262;7.066;2023-02-15T01:37:34;4.40;99.90
24162;DHT22;12318;51.262;7.066;2023-02-15T01:40:01;4.30;99.90
24162;DHT22;12318;51.262;7.066;2023-02-15T01:42:28;4.40;99.90
24162;DHT22;12318;51.262;7.066;2023-02-15T01:44:59;4.40;99.90
24162;DHT22;12318;51.262;7.066;2023-02-15T01:47:36;4.40;99.90
24162;DHT22;12318;51.262;7.066;2023-02-15T01:50:18;4.40;99.90
24162;DHT22;12318;51.262;7.066;2023-02-15T01:52:57;4.30;99.90
24162;DHT22;12318;51.262;7.066;2023-02-15T01:55:29;4.30;99.90
24162;DHT22;12318;51.262;7.066;2023-02-15T01:57:56;4.40;99.90
24162;DHT22;12318;51.262;7.066;2023-02-15T02:00:22;4.40;99.90
24162;DHT22;12318;51.262;7.066;2023-02-15T02:02:50;4.40;99.90
24162;DHT22;12318;51.262;7.066;2023-02-15T02:05:16;4.40;99.90
24162;DHT22;12318;51.262;7.066;2023-02-15T02:07:44;4.40;99.90
24162;DHT22;12318;51.262;7.066;2023-02-15T02:10:17;4.40;99.90
24162;DHT22;12318;51.262;7.066;2023-02-15T02:12:45;4.40;99.90
24162;DHT22;12318;51.262;7.066;2023-02-15T02:15:11;4.30;99.90
24162;DHT22;12318;51.262;7.066;2023-02-15T02:18:03;4.30;99.90
24162;DHT22;12318;51.262;7.066;2023-02-15T02:31:44;4.20;99.90
24162;DHT22;12318;51.262;7.066;2023-02-15T02:48:04;4.10;99.90
24162;DHT22;12318;51.262;7.066;2023-02-15T02:50:30;4.20;99.90
24162;DHT22;12318;51.262;7.066;2023-02-15T02:52:57;4.10;99.90
24162;DHT22;12318;51.262;7.066;2023-02-15T02:55:44;4.20;99.90
24162;DHT22;12318;51.262;7.066;2023-02-15T03:00:54;4.20;99.90
24162;DHT22;12318;51.262;7.066;2023-02-15T03:03:30;4.30;99.90
24162;DHT22;12318;51.262;7.066;2023-02-15T03:06:00;4.30;99.90
24162;DHT22;12318;51.262;7.066;2023-02-15T03:08:34;4.30;99.90
24162;DHT22;12318;51.262;7.066;2023-02-15T03:11:02;4.30;99.90
24162;DHT22;12318;51.262;7.066;2023-02-15T03:13:28;4.20;99.90
24162;DHT22;12318;51.262;7.066;2023-02-15T03:15:55;4.20;99.90
24162;DHT22;12318;51.262;7.066;2023-02-15T03:18:48;4.10;99.90
24162;DHT22;12318;51.262;7.066;2023-02-15T03:21:21;4.10;99.90
24162;DHT22;12318;51.262;7.066;2023-02-15T03:23:55;4.10;99.90
24162;DHT22;12318;51.262;7.066;2023-02-15T03:26:24;4.10;99.90
24162;DHT22;12318;51.262;7.066;2023-02-15T03:28:53;4.00;99.90
24162;DHT22;12318;51.262;7.066;2023-02-15T03:31:22;4.10;99.90
24162;DHT22;12318;51.262;7.066;2023-02-15T03:33:57;4.10;99.90
24162;DHT22;12318;51.262;7.066;2023-02-15T03:39:20;4.10;99.90
24162;DHT22;12318;51.262;7.066;2023-02-15T03:42:17;4.00;99.90
24162;DHT22;12318;51.262;7.066;2023-02-15T03:47:39;4.10;99.90
24162;DHT22;12318;51.262;7.066;2023-02-15T03:50:08;4.00;99.90
24162;DHT22;12318;51.262;7.066;2023-02-15T03:52:57;3.90;99.90
24162;DHT22;12318;51.262;7.066;2023-02-15T03:55:25;4.00;99.90
24162;DHT22;12318;51.262;7.066;2023-02-15T03:57:52;4.00;99.90
24162;DHT22;12318;51.262;7.066;2023-02-15T04:00:40;4.00;99.90
24162;DHT22;12318;51.262;7.066;2023-02-15T04:03:35;3.90;99.90
24162;DHT22;12318;51.262;7.066;2023-02-15T04:06:04;3.90;99.90
24162;DHT22;12318;51.262;7.066;2023-02-15T04:08:30;3.90;99.90
24162;DHT22;12318;51.262;7.066;2023-02-15T04:11:14;3.90;99.90
24162;DHT22;12318;51.262;7.066;2023-02-15T04:13:40;3.90;99.90
24162;DHT22;12318;51.262;7.066;2023-02-15T04:16:06;3.90;99.90
24162;DHT22;12318;51.262;7.066;2023-02-15T04:21:22;3.70;99.90
24162;DHT22;12318;51.262;7.066;2023-02-15T04:24:06;3.70;99.90
24162;DHT22;12318;51.262;7.066;2023-02-15T04:26:51;3.70;99.90
24162;DHT22;12318;51.262;7.066;2023-02-15T04:29:21;3.70;99.90
24162;DHT22;12318;51.262;7.066;2023-02-15T04:31:47;3.70;99.90
24162;DHT22;12318;51.262;7.066;2023-02-15T04:34:13;3.70;99.90
24162;DHT22;12318;51.262;7.066;2023-02-15T04:36:40;3.70;99.90
24162;DHT22;12318;51.262;7.066;2023-02-15T04:39:06;3.70;99.90
24162;DHT22;12318;51.262;7.066;2023-02-15T04:41:33;3.70;99.90
24162;DHT22;12318;51.262;7.066;2023-02-15T04:43:59;3.70;99.90
24162;DHT22;12318;51.262;7.066;2023-02-15T04:46:27;3.70;99.90
24162;DHT22;12318;51.262;7.066;2023-02-15T04:48:52;3.70;99.90
24162;DHT22;12318;51.262;7.066;2023-02-15T04:51:18;3.60;99.90
24162;DHT22;12318;51.262;7.066;2023-02-15T04:53:44;3.50;99.90
24162;DHT22;12318;51.262;7.066;2023-02-15T04:56:10;3.60;99.90
24162;DHT22;12318;51.262;7.066;2023-02-15T04:58:36;3.60;99.90
24162;DHT22;12318;51.262;7.066;2023-02-15T05:01:03;3.60;99.90
24162;DHT22;12318;51.262;7.066;2023-02-15T05:03:29;3.60;99.90
24162;DHT22;12318;51.262;7.066;2023-02-15T05:05:55;3.60;99.90
24162;DHT22;12318;51.262;7.066;2023-02-15T05:08:20;3.50;99.90
24162;DHT22;12318;51.262;7.066;2023-02-15T05:10:48;3.50;99.90
24162;DHT22;12318;51.262;7.066;2023-02-15T05:13:14;3.50;99.90
24162;DHT22;12318;51.262;7.066;2023-02-15T05:15:40;3.30;99.90
24162;DHT22;12318;51.262;7.066;2023-02-15T05:18:06;3.10;99.90
24162;DHT22;12318;51.262;7.066;2023-02-15T05:20:33;3.30;99.90
24162;DHT22;12318;51.262;7.066;2023-02-15T05:22:58;3.40;99.90
24162;DHT22;12318;51.262;7.066;2023-02-15T05:25:24;3.50;99.90
24162;DHT22;12318;51.262;7.066;2023-02-15T05:28:10;3.50;99.90
24162;DHT22;12318;51.262;7.066;2023-02-15T05:30:49;3.50;99.90
24162;DHT22;12318;51.262;7.066;2023-02-15T05:33:15;3.50;99.90
24162;DHT22;12318;51.262;7.066;2023-02-15T05:35:41;3.40;99.90
24162;DHT22;12318;51.262;7.066;2023-02-15T05:38:07;3.40;99.90
24162;DHT22;12318;51.262;7.066;2023-02-15T05:40:33;3.50;99.90
24162;DHT22;12318;51.262;7.066;2023-02-15T05:42:59;3.50;99.90
24162;DHT22;12318;51.262;7.066;2023-02-15T05:45:25;3.50;99.90
24162;DHT22;12318;51.262;7.066;2023-02-15T05:47:51;3.50;99.90
24162;DHT22;12318;51.262;7.066;2023-02-15T05:50:17;3.60;99.90
24162;DHT22;12318;51.262;7.066;2023-02-15T05:52:42;3.60;99.90
24162;DHT22;12318;51.262;7.066;2023-02-15T05:55:08;3.50;99.90
24162;DHT22;12318;51.262;7.066;2023-02-15T05:57:35;3.50;99.90
24162;DHT22;12318;51.262;7.066;2023-02-15T06:00:04;3.40;99.90
24162;DHT22;12318;51.262;7.066;2023-02-15T06:02:36;3.30;99.90
24162;DHT22;12318;51.262;7.066;2023-02-15T06:05:03;3.30;99.90
24162;DHT22;12318;51.262;7.066;2023-02-15T06:07:30;3.30;99.90
24162;DHT22;12318;51.262;7.066;2023-02-15T06:09:55;3.30;99.90
24162;DHT22;12318;51.262;7.066;2023-02-15T06:12:21;3.30;99.90
24162;DHT22;12318;51.262;7.066;2023-02-15T06:14:47;3.20;99.90
24162;DHT22;12318;51.262;7.066;2023-02-15T06:17:15;3.30;99.90
24162;DHT22;12318;51.262;7.066;2023-02-15T06:19:42;3.30;99.90
24162;DHT22;12318;51.262;7.066;2023-02-15T06:22:08;3.30;99.90
24162;DHT22;12318;51.262;7.066;2023-02-15T06:24:34;3.30;99.90
24162;DHT22;12318;51.262;7.066;2023-02-15T06:26:59;3.20;99.90
24162;DHT22;12318;51.262;7.066;2023-02-15T06:29:25;3.20;99.90
24162;DHT22;12318;51.262;7.066;2023-02-15T06:31:51;3.10;99.90
24162;DHT22;12318;51.262;7.066;2023-02-15T06:34:17;3.10;99.90
24162;DHT22;12318;51.262;7.066;2023-02-15T06:36:43;3.10;99.90
24162;DHT22;12318;51.262;7.066;2023-02-15T06:39:08;3.20;99.90
24162;DHT22;12318;51.262;7.066;2023-02-15T06:41:34;3.20;99.90
24162;DHT22;12318;51.262;7.066;2023-02-15T06:44:02;3.30;99.90
24162;DHT22;12318;51.262;7.066;2023-02-15T06:46:28;3.30;99.90
24162;DHT22;12318;51.262;7.066;2023-02-15T06:48:54;3.30;99.90
24162;DHT22;12318;51.262;7.066;2023-02-15T06:51:20;3.30;99.90
24162;DHT22;12318;51.262;7.066;2023-02-15T06:53:45;3.40;99.90
24162;DHT22;12318;51.262;7.066;2023-02-15T06:56:11;3.30;99.90
24162;DHT22;12318;51.262;7.066;2023-02-15T06:58:39;3.30;99.90
24162;DHT22;12318;51.262;7.066;2023-02-15T07:01:06;3.30;99.90
24162;DHT22;12318;51.262;7.066;2023-02-15T07:03:32;3.30;99.90
24162;DHT22;12318;51.262;7.066;2023-02-15T07:06:00;3.30;99.90
24162;DHT22;12318;51.262;7.066;2023-02-15T07:08:27;3.20;99.90
24162;DHT22;12318;51.262;7.066;2023-02-15T07:10:56;3.20;99.90
24162;DHT22;12318;51.262;7.066;2023-02-15T07:13:42;3.20;99.90
24162;DHT22;12318;51.262;7.066;2023-02-15T07:16:10;3.20;99.90
24162;DHT22;12318;51.262;7.066;2023-02-15T07:18:37;3.20;99.90
24162;DHT22;12318;51.262;7.066;2023-02-15T07:21:06;3.30;99.90
24162;DHT22;12318;51.262;7.066;2023-02-15T07:23:36;3.30;99.90
24162;DHT22;12318;51.262;7.066;2023-02-15T07:26:04;3.30;99.90
24162;DHT22;12318;51.262;7.066;2023-02-15T07:28:32;3.40;99.90
24162;DHT22;12318;51.262;7.066;2023-02-15T07:31:00;3.40;99.90
24162;DHT22;12318;51.262;7.066;2023-02-15T07:33:27;3.30;99.90
24162;DHT22;12318;51.262;7.066;2023-02-15T07:35:54;3.30;99.90
24162;DHT22;12318;51.262;7.066;2023-02-15T07:38:21;3.30;99.90
24162;DHT22;12318;51.262;7.066;2023-02-15T07:40:47;3.30;99.90
24162;DHT22;12318;51.262;7.066;2023-02-15T07:43:13;3.30;99.90
24162;DHT22;12318;51.262;7.066;2023-02-15T07:45:39;3.40;99.90
24162;DHT22;12318;51.262;7.066;2023-02-15T07:48:06;3.40;99.90
24162;DHT22;12318;51.262;7.066;2023-02-15T07:50:34;3.40;99.90
24162;DHT22;12318;51.262;7.066;2023-02-15T07:53:03;3.50;99.90
24162;DHT22;12318;51.262;7.066;2023-02-15T07:55:29;3.60;99.90
24162;DHT22;12318;51.262;7.066;2023-02-15T07:57:55;3.60;99.90
24162;DHT22;12318;51.262;7.066;2023-02-15T08:00:22;3.70;99.90
24162;DHT22;12318;51.262;7.066;2023-02-15T08:02:51;3.70;99.90
24162;DHT22;12318;51.262;7.066;2023-02-15T08:05:41;3.80;99.90
24162;DHT22;12318;51.262;7.066;2023-02-15T08:08:08;3.80;99.90
24162;DHT22;12318;51.262;7.066;2023-02-15T08:11:01;4.00;99.90
24162;DHT22;12318;51.262;7.066;2023-02-15T08:13:47;4.10;99.90
24162;DHT22;12318;51.262;7.066;2023-02-15T08:19:28;4.30;99.90
24162;DHT22;12318;51.262;7.066;2023-02-15T08:22:01;4.50;99.90
24162;DHT22;12318;51.262;7.066;2023-02-15T08:24:33;4.60;99.90
24162;DHT22;12318;51.262;7.066;2023-02-15T08:27:00;4.70;99.90
24162;DHT22;12318;51.262;7.066;2023-02-15T08:29:29;4.80;99.90
24162;DHT22;12318;51.262;7.066;2023-02-15T08:32:00;4.90;99.90
24162;DHT22;12318;51.262;7.066;2023-02-15T08:34:28;5.00;99.90
24162;DHT22;12318;51.262;7.066;2023-02-15T08:36:55;5.10;99.90
24162;DHT22;12318;51.262;7.066;2023-02-15T08:39:20;5.20;99.90
24162;DHT22;12318;51.262;7.066;2023-02-15T08:41:47;5.30;99.90
24162;DHT22;12318;51.262;7.066;2023-02-15T08:44:15;5.40;99.90
24162;DHT22;12318;51.262;7.066;2023-02-15T08:46:43;5.50;99.90
24162;DHT22;12318;51.262;7.066;2023-02-15T08:49:12;5.70;99.90
24162;DHT22;12318;51.262;7.066;2023-02-15T08:51:38;5.70;99.90
24162;DHT22;12318;51.262;7.066;2023-02-15T08:54:27;5.80;99.90
24162;DHT22;12318;51.262;7.066;2023-02-15T08:57:30;6.00;99.90
24162;DHT22;12318;51.262;7.066;2023-02-15T08:59:56;6.20;99.50
24162;DHT22;12318;51.262;7.066;2023-02-15T09:02:21;6.40;98.50
24162;DHT22;12318;51.262;7.066;2023-02-15T09:04:47;6.50;98.00
24162;DHT22;12318;51.262;7.066;2023-02-15T09:07:21;6.60;97.80
24162;DHT22;12318;51.262;7.066;2023-02-15T09:10:08;6.60;97.00
24162;DHT22;12318;51.262;7.066;2023-02-15T09:12:43;6.80;96.70
24162;DHT22;12318;51.262;7.066;2023-02-15T09:15:09;6.80;95.90
24162;DHT22;12318;51.262;7.066;2023-02-15T09:17:38;7.00;96.20
24162;DHT22;12318;51.262;7.066;2023-02-15T09:20:04;7.00;95.10
24162;DHT22;12318;51.262;7.066;2023-02-15T09:22:30;7.00;95.00
24162;DHT22;12318;51.262;7.066;2023-02-15T09:24:56;7.20;94.90
24162;DHT22;12318;51.262;7.066;2023-02-15T09:27:22;7.20;94.30
24162;DHT22;12318;51.262;7.066;2023-02-15T09:29:48;7.30;94.20
24162;DHT22;12318;51.262;7.066;2023-02-15T09:32:17;7.50;93.90
24162;DHT22;12318;51.262;7.066;2023-02-15T09:38:05;7.80;93.50
24162;DHT22;12318;51.262;7.066;2023-02-15T09:40:38;8.00;93.30
24162;DHT22;12318;51.262;7.066;2023-02-15T09:43:50;8.10;93.00
24162;DHT22;12318;51.262;7.066;2023-02-15T09:47:05;8.30;92.70
24162;DHT22;12318;51.262;7.066;2023-02-15T09:52:35;8.40;91.20
24162;DHT22;12318;51.262;7.066;2023-02-15T10:01:39;8.60;90.50
24162;DHT22;12318;51.262;7.066;2023-02-15T10:09:48;8.70;89.70
24162;DHT22;12318;51.262;7.066;2023-02-15T10:28:50;9.20;88.20
24162;DHT22;12318;51.262;7.066;2023-02-15T10:31:24;9.40;88.30
24162;DHT22;12318;51.262;7.066;2023-02-15T10:36:43;9.40;85.00
24162;DHT22;12318;51.262;7.066;2023-02-15T10:58:54;9.90;85.20
24162;DHT22;12318;51.262;7.066;2023-02-15T11:09:49;10.10;80.60
24162;DHT22;12318;51.262;7.066;2023-02-15T11:12:27;10.00;80.60
24162;DHT22;12318;51.262;7.066;2023-02-15T11:18:47;10.40;82.00
24162;DHT22;12318;51.262;7.066;2023-02-15T11:21:22;10.70;82.50
24162;DHT22;12318;51.262;7.066;2023-02-15T11:23:48;10.80;79.20
24162;DHT22;12318;51.262;7.066;2023-02-15T11:26:31;10.80;78.10
24162;DHT22;12318;51.262;7.066;2023-02-15T11:28:59;10.90;79.00
24162;DHT22;12318;51.262;7.066;2023-02-15T11:31:26;11.10;78.10
24162;DHT22;12318;51.262;7.066;2023-02-15T11:34:01;10.80;74.70
24162;DHT22;12318;51.262;7.066;2023-02-15T11:36:32;10.70;76.40
24162;DHT22;12318;51.262;7.066;2023-02-15T11:39:04;10.80;76.60
24162;DHT22;12318;51.262;7.066;2023-02-15T11:41:31;10.70;75.40
24162;DHT22;12318;51.262;7.066;2023-02-15T11:44:15;10.90;76.30
24162;DHT22;12318;51.262;7.066;2023-02-15T11:46:42;11.00;76.10
24162;DHT22;12318;51.262;7.066;2023-02-15T11:49:22;10.90;76.10
24162;DHT22;12318;51.262;7.066;2023-02-15T11:51:50;11.00;75.60
24162;DHT22;12318;51.262;7.066;2023-02-15T11:54:21;10.80;74.60
24162;DHT22;12318;51.262;7.066;2023-02-15T11:56:56;10.80;75.70
24162;DHT22;12318;51.262;7.066;2023-02-15T11:59:44;11.00;76.10
24162;DHT22;12318;51.262;7.066;2023-02-15T12:02:22;11.10;76.10
24162;DHT22;12318;51.262;7.066;2023-02-15T12:04:58;11.30;75.10
24162;DHT22;12318;51.262;7.066;2023-02-15T12:07:35;11.20;75.60
24162;DHT22;12318;51.262;7.066;2023-02-15T12:10:26;11.30;75.50
24162;DHT22;12318;51.262;7.066;2023-02-15T12:13:14;11.40;75.20
24162;DHT22;12318;51.262;7.066;2023-02-15T12:16:09;11.30;72.70
24162;DHT22;12318;51.262;7.066;2023-02-15T12:18:39;11.30;73.00
24162;DHT22;12318;51.262;7.066;2023-02-15T12:21:10;11.20;72.20
24162;DHT22;12318;51.262;7.066;2023-02-15T12:26:12;11.40;72.40
24162;DHT22;12318;51.262;7.066;2023-02-15T12:28:41;11.30;71.40
24162;DHT22;12318;51.262;7.066;2023-02-15T12:31:23;11.40;72.00
24162;DHT22;12318;51.262;7.066;2023-02-15T12:33:53;11.60;72.30
24162;DHT22;12318;51.262;7.066;2023-02-15T12:36:40;11.70;71.20
24162;DHT22;12318;51.262;7.066;2023-02-15T12:49:37;11.80;69.40
24162;DHT22;12318;51.262;7.066;2023-02-15T12:52:10;11.80;70.70
24162;DHT22;12318;51.262;7.066;2023-02-15T12:54:51;12.10;69.70
24162;DHT22;12318;51.262;7.066;2023-02-15T12:57:27;12.30;68.90
24162;DHT22;12318;51.262;7.066;2023-02-15T13:00:25;12.50;67.70
24162;DHT22;12318;51.262;7.066;2023-02-15T13:03:20;12.60;67.90
24162;DHT22;12318;51.262;7.066;2023-02-15T13:05:50;12.30;68.10
24162;DHT22;12318;51.262;7.066;2023-02-15T13:08:30;12.30;68.00
24162;DHT22;12318;51.262;7.066;2023-02-15T13:11:09;12.50;66.90
24162;DHT22;12318;51.262;7.066;2023-02-15T13:13:59;12.60;65.20
24162;DHT22;12318;51.262;7.066;2023-02-15T13:16:36;12.40;65.10
24162;DHT22;12318;51.262;7.066;2023-02-15T13:19:12;12.70;65.00
24162;DHT22;12318;51.262;7.066;2023-02-15T13:21:43;12.70;64.80
24162;DHT22;12318;51.262;7.066;2023-02-15T13:24:48;12.50;65.60
24162;DHT22;12318;51.262;7.066;2023-02-15T13:27:21;12.50;66.30
24162;DHT22;12318;51.262;7.066;2023-02-15T13:29:51;12.40;65.90
24162;DHT22;12318;51.262;7.066;2023-02-15T13:32:33;12.40;65.40
24162;DHT22;12318;51.262;7.066;2023-02-15T13:35:03;12.60;66.10
24162;DHT22;12318;51.262;7.066;2023-02-15T13:40:15;12.90;64.90
24162;DHT22;12318;51.262;7.066;2023-02-15T13:49:14;12.70;64.50
24162;DHT22;12318;51.262;7.066;2023-02-15T13:54:06;12.70;63.90
24162;DHT22;12318;51.262;7.066;2023-02-15T14:13:26;12.70;60.00
24162;DHT22;12318;51.262;7.066;2023-02-15T14:18:37;13.00;60.00
24162;DHT22;12318;51.262;7.066;2023-02-15T14:21:27;13.00;59.70
24162;DHT22;12318;51.262;7.066;2023-02-15T14:32:16;13.10;57.60
24162;DHT22;12318;51.262;7.066;2023-02-15T14:35:12;13.10;58.90
24162;DHT22;12318;51.262;7.066;2023-02-15T14:37:50;13.40;57.90
24162;DHT22;12318;51.262;7.066;2023-02-15T14:40:34;13.50;58.00
24162;DHT22;12318;51.262;7.066;2023-02-15T14:43:27;13.30;58.80
24162;DHT22;12318;51.262;7.066;2023-02-15T14:46:10;13.40;59.00
24162;DHT22;12318;51.262;7.066;2023-02-15T14:48:46;13.70;58.00
24162;DHT22;12318;51.262;7.066;2023-02-15T15:02:50;12.90;58.10
24162;DHT22;12318;51.262;7.066;2023-02-15T15:05:48;12.90;57.90
24162;DHT22;12318;51.262;7.066;2023-02-15T15:08:29;12.70;58.80
24162;DHT22;12318;51.262;7.066;2023-02-15T15:14:01;12.80;59.20
24162;DHT22;12318;51.262;7.066;2023-02-15T15:16:47;12.80;59.30
24162;DHT22;12318;51.262;7.066;2023-02-15T15:22:28;13.10;59.40
24162;DHT22;12318;51.262;7.066;2023-02-15T15:24:55;13.10;59.20
24162;DHT22;12318;51.262;7.066;2023-02-15T15:27:47;13.00;58.30
24162;DHT22;12318;51.262;7.066;2023-02-15T15:41:18;12.80;61.10
24162;DHT22;12318;51.262;7.066;2023-02-15T15:47:02;12.40;63.50
24162;DHT22;12318;51.262;7.066;2023-02-15T15:49:32;12.60;63.10
24162;DHT22;12318;51.262;7.066;2023-02-15T15:52:07;12.30;63.80
24162;DHT22;12318;51.262;7.066;2023-02-15T15:54:34;12.30;64.60
24162;DHT22;12318;51.262;7.066;2023-02-15T15:57:04;12.20;64.90
24162;DHT22;12318;51.262;7.066;2023-02-15T15:59:33;12.30;64.30
24162;DHT22;12318;51.262;7.066;2023-02-15T16:02:14;12.30;64.70
24162;DHT22;12318;51.262;7.066;2023-02-15T16:04:44;12.20;64.60
24162;DHT22;12318;51.262;7.066;2023-02-15T16:07:23;12.00;65.00
24162;DHT22;12318;51.262;7.066;2023-02-15T16:09:55;11.80;66.60
24162;DHT22;12318;51.262;7.066;2023-02-15T16:12:21;11.70;66.70
24162;DHT22;12318;51.262;7.066;2023-02-15T16:14:48;11.60;67.40
24162;DHT22;12318;51.262;7.066;2023-02-15T16:17:26;11.50;67.60
24162;DHT22;12318;51.262;7.066;2023-02-15T16:20:03;11.40;68.00
24162;DHT22;12318;51.262;7.066;2023-02-15T16:22:31;11.30;69.00
24162;DHT22;12318;51.262;7.066;2023-02-15T16:27:40;11.30;69.80
24162;DHT22;12318;51.262;7.066;2023-02-15T16:30:36;11.20;70.20
24162;DHT22;12318;51.262;7.066;2023-02-15T16:33:13;11.30;70.20
24162;DHT22;12318;51.262;7.066;2023-02-15T16:36:00;11.30;71.40
24162;DHT22;12318;51.262;7.066;2023-02-15T16:41:23;11.20;70.80
24162;DHT22;12318;51.262;7.066;2023-02-15T16:43:50;11.10;71.60
24162;DHT22;12318;51.262;7.066;2023-02-15T16:46:20;10.90;72.40
24162;DHT22;12318;51.262;7.066;2023-02-15T16:48:52;10.60;74.10
24162;DHT22;12318;51.262;7.066;2023-02-15T16:51:22;10.60;74.90
24162;DHT22;12318;51.262;7.066;2023-02-15T16:53:49;10.50;75.10
24162;DHT22;12318;51.262;7.066;2023-02-15T16:56:15;10.50;75.20
24162;DHT22;12318;51.262;7.066;2023-02-15T16:58:45;10.50;75.40
24162;DHT22;12318;51.262;7.066;2023-02-15T17:01:13;10.40;76.10
24162;DHT22;12318;51.262;7.066;2023-02-15T17:03:40;10.30;76.90
24162;DHT22;12318;51.262;7.066;2023-02-15T17:06:24;10.20;77.50
24162;DHT22;12318;51.262;7.066;2023-02-15T17:08:52;10.20;77.70
24162;DHT22;12318;51.262;7.066;2023-02-15T17:11:20;10.20;77.70
24162;DHT22;12318;51.262;7.066;2023-02-15T17:16:44;10.10;78.60
24162;DHT22;12318;51.262;7.066;2023-02-15T17:19:29;10.10;78.60
24162;DHT22;12318;51.262;7.066;2023-02-15T17:21:56;10.00;78.80
24162;DHT22;12318;51.262;7.066;2023-02-15T17:24:39;10.00;78.80
24162;DHT22;12318;51.262;7.066;2023-02-15T17:27:27;10.00;79.40
24162;DHT22;12318;51.262;7.066;2023-02-15T17:30:00;9.80;80.10
24162;DHT22;12318;51.262;7.066;2023-02-15T17:32:29;9.80;80.20
24162;DHT22;12318;51.262;7.066;2023-02-15T17:39:55;9.70;80.90
24162;DHT22;12318;51.262;7.066;2023-02-15T17:42:21;9.60;81.30
24162;DHT22;12318;51.262;7.066;2023-02-15T17:44:48;9.50;82.60
24162;DHT22;12318;51.262;7.066;2023-02-15T17:47:20;9.50;82.70
24162;DHT22;12318;51.262;7.066;2023-02-15T17:49:48;9.30;83.00
24162;DHT22;12318;51.262;7.066;2023-02-15T17:52:17;9.30;83.40
24162;DHT22;12318;51.262;7.066;2023-02-15T17:54:43;9.40;83.40
24162;DHT22;12318;51.262;7.066;2023-02-15T17:57:29;9.40;83.00
24162;DHT22;12318;51.262;7.066;2023-02-15T17:59:56;9.30;83.20
24162;DHT22;12318;51.262;7.066;2023-02-15T18:02:41;9.20;83.90
24162;DHT22;12318;51.262;7.066;2023-02-15T18:05:28;9.10;84.40
24162;DHT22;12318;51.262;7.066;2023-02-15T18:08:17;9.10;84.30
24162;DHT22;12318;51.262;7.066;2023-02-15T18:11:02;9.10;84.60
24162;DHT22;12318;51.262;7.066;2023-02-15T18:13:46;9.10;84.70
24162;DHT22;12318;51.262;7.066;2023-02-15T18:16:23;9.00;86.00
24162;DHT22;12318;51.262;7.066;2023-02-15T18:18:51;8.90;85.70
24162;DHT22;12318;51.262;7.066;2023-02-15T18:21:18;8.90;86.00
24162;DHT22;12318;51.262;7.066;2023-02-15T18:23:44;8.90;86.10
24162;DHT22;12318;51.262;7.066;2023-02-15T18:26:19;8.80;86.10
24162;DHT22;12318;51.262;7.066;2023-02-15T18:28:45;8.90;86.10
24162;DHT22;12318;51.262;7.066;2023-02-15T18:31:16;8.90;86.10
24162;DHT22;12318;51.262;7.066;2023-02-15T18:33:47;8.90;86.30
24162;DHT22;12318;51.262;7.066;2023-02-15T18:36:24;8.80;86.40
24162;DHT22;12318;51.262;7.066;2023-02-15T18:38:50;8.80;86.70
24162;DHT22;12318;51.262;7.066;2023-02-15T18:41:19;8.70;86.90
24162;DHT22;12318;51.262;7.066;2023-02-15T18:43:45;8.70;87.00
24162;DHT22;12318;51.262;7.066;2023-02-15T18:46:13;8.60;87.80
24162;DHT22;12318;51.262;7.066;2023-02-15T18:48:39;8.60;87.90
24162;DHT22;12318;51.262;7.066;2023-02-15T18:51:18;8.70;87.90
24162;DHT22;12318;51.262;7.066;2023-02-15T18:53:47;8.70;87.60
24162;DHT22;12318;51.262;7.066;2023-02-15T18:56:16;8.70;87.80
24162;DHT22;12318;51.262;7.066;2023-02-15T18:58:43;8.50;88.40
24162;DHT22;12318;51.262;7.066;2023-02-15T19:01:13;8.50;88.60
24162;DHT22;12318;51.262;7.066;2023-02-15T19:03:43;8.60;88.80
24162;DHT22;12318;51.262;7.066;2023-02-15T19:06:11;8.60;90.00
24162;DHT22;12318;51.262;7.066;2023-02-15T19:08:37;8.70;90.40
24162;DHT22;12318;51.262;7.066;2023-02-15T19:11:04;8.80;90.60
24162;DHT22;12318;51.262;7.066;2023-02-15T19:13:30;8.80;90.80
24162;DHT22;12318;51.262;7.066;2023-02-15T19:15:59;8.90;90.40
24162;DHT22;12318;51.262;7.066;2023-02-15T19:18:24;8.90;90.10
24162;DHT22;12318;51.262;7.066;2023-02-15T19:20:50;8.90;90.70
24162;DHT22;12318;51.262;7.066;2023-02-15T19:23:21;9.00;90.20
24162;DHT22;12318;51.262;7.066;2023-02-15T19:25:48;8.90;90.40
24162;DHT22;12318;51.262;7.066;2023-02-15T19:28:29;8.70;90.30
24162;DHT22;12318;51.262;7.066;2023-02-15T19:31:02;8.70;90.40
24162;DHT22;12318;51.262;7.066;2023-02-15T19:33:28;8.70;90.20
24162;DHT22;12318;51.262;7.066;2023-02-15T19:35:57;8.70;91.20
24162;DHT22;12318;51.262;7.066;2023-02-15T19:38:33;8.70;90.60